Time;durP1;ratioP1;P1;durP2;ratioP2;P2;SDS_P1;SDS_P2;PMS_P1;PMS_P2;Temp;Humidity;BMP_temperature;BMP_pressure;BME280_temperature;BME280_humidity;BME280_pressure;Samples;Min_cycle;Max_cycle;Signal;HPM_P1;HPM_P2
2023/05/21 00:01:14;;;;;;;4.77;3.60;;;;;;;;;;5074013;28;20583;-58
2023/05/21 00:03:41;;;;;;;17.70;16.03;;;;;;;;;;5071192;28;20231;-58
2023/05/21 00:06:07;;;;;;;5.23;4.40;;;;;;;;;;5074423;28;20195;-57
2023/05/21 00:08:33;;;;;;;4.50;4.10;;;;;;;;;;5074174;28;20201;-57
2023/05/21 00:11:00;;;;;;;3.93;3.63;;;;;;;;;;5074038;28;20269;-58
2023/05/21 00:13:26;;;;;;;3.80;3.50;;;;;;;;;;5074120;28;20199;-58
2023/05/21 00:15:52;;;;;;;4.43;3.73;;;;;;;;;;5073803;28;20257;-58
2023/05/21 00:18:18;;;;;;;4.30;3.90;;;;;;;;;;5074139;28;20204;-58
2023/05/21 00:20:44;;;;;;;4.10;3.70;;;;;;;;;;5073680;28;20775;-58
2023/05/21 00:23:10;;;;;;;5.17;3.77;;;;;;;;;;5074001;28;20282;-58
2023/05/21 00:25:36;;;;;;;4.03;3.63;;;;;;;;;;5073992;28;20723;-58
2023/05/21 00:28:04;;;;;;;4.27;3.87;;;;;;;;;;5073844;28;20235;-58
2023/05/21 00:30:30;;;;;;;4.30;3.90;;;;;;;;;;5073644;28;20624;-58
2023/05/21 00:32:57;;;;;;;5.20;4.27;;;;;;;;;;5073683;28;20739;-57
2023/05/21 00:35:23;;;;;;;4.50;4.10;;;;;;;;;;5073383;28;20717;-57
2023/05/21 00:37:50;;;;;;;3.73;3.37;;;;;;;;;;5073701;28;20206;-57
2023/05/21 00:40:18;;;;;;;3.90;3.60;;;;;;;;;;5073715;28;20260;-58
2023/05/21 00:42:46;;;;;;;3.97;3.67;;;;;;;;;;5073160;28;20307;-57
2023/05/21 00:45:14;;;;;;;3.83;3.50;;;;;;;;;;5073595;28;20199;-58
2023/05/21 00:47:41;;;;;;;4.30;3.90;;;;;;;;;;5073409;28;20290;-59
2023/05/21 00:50:07;;;;;;;4.17;3.77;;;;;;;;;;5073509;28;20641;-57
2023/05/21 00:52:40;;;;;;;6.07;4.23;;;;;;;;;;5073430;28;20227;-57
2023/05/21 00:55:06;;;;;;;4.83;4.27;;;;;;;;;;5073540;28;20200;-57
2023/05/21 00:57:33;;;;;;;5.40;3.97;;;;;;;;;;5073372;28;20231;-58
2023/05/21 00:59:59;;;;;;;5.23;4.13;;;;;;;;;;5073352;28;20348;-57
2023/05/21 01:02:26;;;;;;;4.20;3.80;;;;;;;;;;5072871;28;20232;-57
2023/05/21 01:04:54;;;;;;;5.83;4.37;;;;;;;;;;5072935;28;20268;-57
2023/05/21 01:07:20;;;;;;;4.43;3.80;;;;;;;;;;5073194;28;20204;-57
2023/05/21 01:09:47;;;;;;;5.07;4.00;;;;;;;;;;5072559;28;20605;-57
2023/05/21 01:12:13;;;;;;;5.60;4.50;;;;;;;;;;5072703;28;20191;-57
2023/05/21 01:14:39;;;;;;;5.50;4.00;;;;;;;;;;5072782;28;20241;-57
2023/05/21 01:17:09;;;;;;;5.17;4.07;;;;;;;;;;5073074;28;20206;-57
2023/05/21 01:19:36;;;;;;;3.93;3.63;;;;;;;;;;5072734;28;20540;-57
2023/05/21 01:22:03;;;;;;;6.00;4.00;;;;;;;;;;5072578;28;20771;-57
2023/05/21 01:24:31;;;;;;;4.37;3.93;;;;;;;;;;5072451;28;20226;-57
2023/05/21 01:26:58;;;;;;;4.00;3.60;;;;;;;;;;5072727;28;20203;-57
2023/05/21 01:29:24;;;;;;;4.50;4.07;;;;;;;;;;5072415;28;20574;-58
2023/05/21 01:31:56;;;;;;;5.07;3.97;;;;;;;;;;5072645;28;20195;-58
2023/05/21 01:34:25;;;;;;;5.10;3.57;;;;;;;;;;5072738;28;20294;-57
2023/05/21 01:36:55;;;;;;;4.53;3.87;;;;;;;;;;5072058;28;20799;-58
2023/05/21 01:39:23;;;;;;;3.87;3.57;;;;;;;;;;5072483;28;20217;-58
2023/05/21 01:41:53;;;;;;;5.37;3.80;;;;;;;;;;5072393;28;20223;-57
2023/05/21 01:44:21;;;;;;;3.97;3.57;;;;;;;;;;5072695;28;20207;-58
2023/05/21 01:46:48;;;;;;;3.83;3.53;;;;;;;;;;5072246;28;20646;-58
2023/05/21 01:49:15;;;;;;;4.23;3.80;;;;;;;;;;5072222;28;20662;-58
2023/05/21 01:51:41;;;;;;;4.20;3.80;;;;;;;;;;5072200;28;20241;-57
2023/05/21 01:54:07;;;;;;;5.17;3.73;;;;;;;;;;5071428;28;20199;-58
2023/05/21 01:56:35;;;;;;;4.00;3.60;;;;;;;;;;5072072;28;20575;-58
2023/05/21 01:59:03;;;;;;;5.50;3.90;;;;;;;;;;5072126;28;20297;-58
2023/05/21 02:01:29;;;;;;;4.23;3.53;;;;;;;;;;5071916;28;20228;-57
2023/05/21 02:03:56;;;;;;;4.40;3.73;;;;;;;;;;5071232;28;20689;-58
2023/05/21 02:06:22;;;;;;;8.30;4.53;;;;;;;;;;5072087;28;20206;-58
2023/05/21 02:08:49;;;;;;;4.30;3.63;;;;;;;;;;5071769;28;20616;-58
2023/05/21 02:11:15;;;;;;;4.00;3.60;;;;;;;;;;5071967;28;20199;-58
2023/05/21 02:13:41;;;;;;;4.13;3.73;;;;;;;;;;5071511;28;20290;-58
2023/05/21 02:16:10;;;;;;;4.57;4.17;;;;;;;;;;5072127;28;20233;-57
2023/05/21 02:18:36;;;;;;;4.53;3.70;;;;;;;;;;5072065;28;20204;-56
2023/05/21 02:21:02;;;;;;;3.87;3.37;;;;;;;;;;5071713;28;20280;-57
2023/05/21 02:23:28;;;;;;;3.70;3.40;;;;;;;;;;5071999;28;20199;-57
2023/05/21 02:25:54;;;;;;;6.17;3.97;;;;;;;;;;5071763;28;20200;-60
2023/05/21 02:28:20;;;;;;;3.63;3.17;;;;;;;;;;5071985;28;20195;-58
2023/05/21 02:30:46;;;;;;;4.87;4.03;;;;;;;;;;5071701;28;20249;-61
2023/05/21 02:33:14;;;;;;;3.53;3.23;;;;;;;;;;5071734;28;20265;-57
2023/05/21 02:35:40;;;;;;;4.03;3.63;;;;;;;;;;5071576;28;20235;-58
2023/05/21 02:38:08;;;;;;;4.07;3.10;;;;;;;;;;5071691;28;20187;-57
2023/05/21 02:40:34;;;;;;;4.13;3.73;;;;;;;;;;5071366;28;20665;-57
2023/05/21 02:43:00;;;;;;;4.73;3.27;;;;;;;;;;5071421;28;20665;-59
2023/05/21 02:45:26;;;;;;;4.37;3.83;;;;;;;;;;5071560;28;20242;-57
2023/05/21 02:47:52;;;;;;;3.90;3.50;;;;;;;;;;5071464;28;20282;-57
2023/05/21 02:50:21;;;;;;;4.13;3.57;;;;;;;;;;5071551;28;20222;-57
2023/05/21 02:52:47;;;;;;;4.83;3.67;;;;;;;;;;5071487;28;20196;-57
2023/05/21 02:55:13;;;;;;;3.60;3.13;;;;;;;;;;5071583;28;20905;-57
2023/05/21 02:57:39;;;;;;;3.80;3.40;;;;;;;;;;5071455;28;20204;-57
2023/05/21 03:00:08;;;;;;;3.93;3.53;;;;;;;;;;5071395;28;20207;-57
2023/05/21 03:02:34;;;;;;;6.03;3.57;;;;;;;;;;5071398;28;20227;-57
2023/05/21 03:05:00;;;;;;;4.50;3.93;;;;;;;;;;5071300;28;20219;-57
2023/05/21 03:07:27;;;;;;;3.90;3.30;;;;;;;;;;5075402;28;20195;-57
2023/05/21 03:09:53;;;;;;;4.30;3.50;;;;;;;;;;5075483;28;20552;-57
2023/05/21 03:12:19;;;;;;;5.53;3.57;;;;;;;;;;5075494;28;20214;-57
2023/05/21 03:14:45;;;;;;;5.00;3.90;;;;;;;;;;5074972;28;20617;-57
2023/05/21 03:17:15;;;;;;;5.07;3.43;;;;;;;;;;5075027;28;20192;-57
2023/05/21 03:19:41;;;;;;;3.63;3.30;;;;;;;;;;5075051;28;20210;-57
2023/05/21 03:22:08;;;;;;;3.47;2.93;;;;;;;;;;5075071;28;20238;-57
2023/05/21 03:24:35;;;;;;;4.10;3.27;;;;;;;;;;5075085;28;20668;-57
2023/05/21 03:27:01;;;;;;;4.80;3.60;;;;;;;;;;5074858;28;20207;-57
2023/05/21 03:29:27;;;;;;;5.77;3.63;;;;;;;;;;5074527;28;20202;-57
2023/05/21 03:31:54;;;;;;;3.70;3.27;;;;;;;;;;5074201;28;20199;-57
2023/05/21 03:34:20;;;;;;;3.90;3.50;;;;;;;;;;5075111;28;20203;-57
2023/05/21 03:36:46;;;;;;;4.40;3.53;;;;;;;;;;5074441;28;20285;-57
2023/05/21 03:39:12;;;;;;;4.00;3.60;;;;;;;;;;5074738;28;20191;-58
2023/05/21 03:41:39;;;;;;;4.40;3.13;;;;;;;;;;5074651;28;20224;-57
2023/05/21 03:44:05;;;;;;;4.10;3.40;;;;;;;;;;5074815;28;20210;-58
2023/05/21 03:46:32;;;;;;;5.77;3.70;;;;;;;;;;5074585;28;20658;-58
2023/05/21 03:48:58;;;;;;;3.87;3.57;;;;;;;;;;5074499;28;20278;-58
2023/05/21 03:51:24;;;;;;;4.90;3.50;;;;;;;;;;5074676;28;20237;-58
2023/05/21 03:53:50;;;;;;;3.83;3.43;;;;;;;;;;5074560;28;20203;-58
2023/05/21 03:56:16;;;;;;;4.57;3.20;;;;;;;;;;5074510;28;20222;-58
2023/05/21 03:58:43;;;;;;;4.63;3.37;;;;;;;;;;5074319;28;20210;-58
2023/05/21 04:01:09;;;;;;;4.40;3.33;;;;;;;;;;5074211;28;20599;-58
2023/05/21 04:03:36;;;;;;;3.50;3.20;;;;;;;;;;5074132;28;20199;-58
2023/05/21 04:06:02;;;;;;;3.90;3.47;;;;;;;;;;5073145;28;20196;-58
2023/05/21 04:08:28;;;;;;;3.77;3.33;;;;;;;;;;5074048;28;20764;-58
2023/05/21 04:10:54;;;;;;;3.90;3.30;;;;;;;;;;5074142;28;20223;-58
2023/05/21 04:13:20;;;;;;;4.13;3.70;;;;;;;;;;5073988;28;20215;-58
2023/05/21 04:15:47;;;;;;;4.10;3.33;;;;;;;;;;5073730;28;20245;-58
2023/05/21 04:18:15;;;;;;;3.90;3.40;;;;;;;;;;5073314;28;20208;-58
2023/05/21 04:20:41;;;;;;;3.83;3.40;;;;;;;;;;5073547;28;20253;-58
2023/05/21 04:23:08;;;;;;;6.20;3.80;;;;;;;;;;5073926;28;20203;-58
2023/05/21 04:25:34;;;;;;;4.23;3.47;;;;;;;;;;5074081;28;20199;-58
2023/05/21 04:28:00;;;;;;;4.23;3.70;;;;;;;;;;5073575;28;20203;-58
2023/05/21 04:30:26;;;;;;;4.00;3.43;;;;;;;;;;5073838;28;20188;-58
2023/05/21 04:32:54;;;;;;;3.60;3.30;;;;;;;;;;5073835;28;20201;-58
2023/05/21 04:35:20;;;;;;;4.30;3.53;;;;;;;;;;5073790;28;20615;-58
2023/05/21 04:37:46;;;;;;;4.40;3.30;;;;;;;;;;5073432;28;20203;-58
2023/05/21 04:40:17;;;;;;;5.00;3.43;;;;;;;;;;5073564;28;20203;-58
2023/05/21 04:42:43;;;;;;;4.67;3.30;;;;;;;;;;5073589;28;20223;-58
2023/05/21 04:45:10;;;;;;;3.67;3.37;;;;;;;;;;5073514;28;20203;-58
2023/05/21 04:47:36;;;;;;;4.27;3.10;;;;;;;;;;5073325;28;20223;-57
2023/05/21 04:50:04;;;;;;;4.63;3.17;;;;;;;;;;5073243;28;20564;-57
2023/05/21 04:52:30;;;;;;;3.87;3.10;;;;;;;;;;5073498;28;20191;-57
2023/05/21 04:54:56;;;;;;;4.10;3.50;;;;;;;;;;5073246;28;20202;-57
2023/05/21 04:57:23;;;;;;;4.00;3.60;;;;;;;;;;5073429;28;20221;-57
2023/05/21 04:59:49;;;;;;;4.00;3.30;;;;;;;;;;5073320;28;20282;-58
2023/05/21 05:02:16;;;;;;;4.33;3.80;;;;;;;;;;5072994;28;20223;-57
2023/05/21 05:04:42;;;;;;;3.93;3.20;;;;;;;;;;5073043;28;20219;-57
2023/05/21 05:07:10;;;;;;;4.07;3.40;;;;;;;;;;5072992;28;20195;-57
2023/05/21 05:09:36;;;;;;;4.20;3.40;;;;;;;;;;5073170;28;20669;-57
2023/05/21 05:12:02;;;;;;;3.67;3.27;;;;;;;;;;5072965;28;20191;-57
2023/05/21 05:14:28;;;;;;;3.67;3.03;;;;;;;;;;5073027;28;20202;-57
2023/05/21 05:16:59;;;;;;;4.43;3.20;;;;;;;;;;5072927;28;20196;-57
2023/05/21 05:19:25;;;;;;;4.93;3.33;;;;;;;;;;5072866;28;20677;-57
2023/05/21 05:21:51;;;;;;;4.47;3.47;;;;;;;;;;5072857;28;20219;-57
2023/05/21 05:24:18;;;;;;;5.60;3.33;;;;;;;;;;5072720;28;20674;-57
2023/05/21 05:26:44;;;;;;;3.97;3.57;;;;;;;;;;5072809;28;20208;-57
2023/05/21 05:29:10;;;;;;;5.23;3.67;;;;;;;;;;5071527;28;20658;-57
2023/05/21 05:31:36;;;;;;;3.67;3.20;;;;;;;;;;5072859;28;20195;-57
2023/05/21 05:34:02;;;;;;;3.33;3.03;;;;;;;;;;5072577;28;20191;-58
2023/05/21 05:36:28;;;;;;;4.27;3.27;;;;;;;;;;5072528;28;20246;-58
2023/05/21 05:38:54;;;;;;;6.60;3.53;;;;;;;;;;5072481;28;20203;-57
2023/05/21 05:41:22;;;;;;;5.63;4.00;;;;;;;;;;5072391;28;20589;-58
2023/05/21 05:43:48;;;;;;;4.27;3.37;;;;;;;;;;5072465;28;20279;-58
2023/05/21 05:46:14;;;;;;;4.83;3.30;;;;;;;;;;5072267;28;20295;-58
2023/05/21 05:48:39;;;;;;;4.53;3.20;;;;;;;;;;5072389;28;20192;-57
2023/05/21 05:51:05;;;;;;;4.10;3.63;;;;;;;;;;5072290;28;20727;-57
2023/05/21 05:53:32;;;;;;;4.00;3.60;;;;;;;;;;5072251;28;20191;-57
2023/05/21 05:55:58;;;;;;;4.30;3.47;;;;;;;;;;5072233;28;20191;-60
2023/05/21 05:58:25;;;;;;;9.07;3.90;;;;;;;;;;5072095;28;20199;-59
2023/05/21 06:00:51;;;;;;;5.50;3.63;;;;;;;;;;5071924;28;20200;-58
2023/05/21 06:03:17;;;;;;;4.57;3.63;;;;;;;;;;5072069;28;20202;-58
2023/05/21 06:05:44;;;;;;;4.47;3.70;;;;;;;;;;5071930;28;20786;-58
2023/05/21 06:08:10;;;;;;;3.93;3.17;;;;;;;;;;5071930;28;20206;-58
2023/05/21 06:10:36;;;;;;;6.00;3.90;;;;;;;;;;5072026;28;20195;-59
2023/05/21 06:13:02;;;;;;;4.93;3.70;;;;;;;;;;5071736;28;20188;-59
2023/05/21 06:15:29;;;;;;;4.07;3.53;;;;;;;;;;5072071;28;20234;-59
2023/05/21 06:17:55;;;;;;;5.53;4.23;;;;;;;;;;5071762;28;20693;-59
2023/05/21 06:20:21;;;;;;;4.40;4.00;;;;;;;;;;5071935;28;20200;-58
2023/05/21 06:22:47;;;;;;;6.20;4.40;;;;;;;;;;5071717;28;20578;-59
2023/05/21 06:25:14;;;;;;;6.10;4.70;;;;;;;;;;5071750;28;20203;-59
2023/05/21 06:27:40;;;;;;;5.03;4.07;;;;;;;;;;5071728;28;20257;-59
2023/05/21 06:30:07;;;;;;;5.13;4.37;;;;;;;;;;5069603;28;20780;-59
2023/05/21 06:32:34;;;;;;;6.53;4.80;;;;;;;;;;5071653;28;20280;-59
2023/05/21 06:35:00;;;;;;;7.77;5.27;;;;;;;;;;5071408;28;20204;-59
2023/05/21 06:37:26;;;;;;;8.20;5.30;;;;;;;;;;5071668;28;20203;-59
2023/05/21 06:39:52;;;;;;;6.00;5.40;;;;;;;;;;5071499;28;20192;-59
2023/05/21 06:42:18;;;;;;;5.73;4.90;;;;;;;;;;5071312;28;20253;-58
2023/05/21 06:44:44;;;;;;;6.10;5.13;;;;;;;;;;5071526;28;20232;-58
2023/05/21 06:47:10;;;;;;;10.03;5.37;;;;;;;;;;5071450;28;20227;-58
2023/05/21 06:49:38;;;;;;;6.63;5.50;;;;;;;;;;5071720;28;20195;-58
2023/05/21 06:52:04;;;;;;;7.43;5.87;;;;;;;;;;5071370;28;20196;-59
2023/05/21 06:54:30;;;;;;;8.00;6.60;;;;;;;;;;5071542;28;20211;-57
2023/05/21 06:56:56;;;;;;;7.07;6.40;;;;;;;;;;5071452;28;20276;-58
2023/05/21 06:59:22;;;;;;;6.73;5.53;;;;;;;;;;5071286;28;20654;-59
2023/05/21 07:01:48;;;;;;;6.57;5.93;;;;;;;;;;5071432;28;20229;-58
2023/05/21 07:04:14;;;;;;;6.33;5.53;;;;;;;;;;5071184;28;20711;-59
2023/05/21 07:06:42;;;;;;;7.20;4.87;;;;;;;;;;5071408;28;20200;-59
2023/05/21 07:09:09;;;;;;;6.77;6.07;;;;;;;;;;5071350;28;20228;-58
2023/05/21 07:11:35;;;;;;;7.20;6.50;;;;;;;;;;5071473;28;20193;-59
2023/05/21 07:14:01;;;;;;;6.13;5.53;;;;;;;;;;5071100;28;20667;-59
2023/05/21 07:16:27;;;;;;;9.00;7.17;;;;;;;;;;5071230;28;20662;-60
2023/05/21 07:18:53;;;;;;;10.93;7.33;;;;;;;;;;5071207;28;20194;-58
2023/05/21 07:21:19;;;;;;;6.83;6.13;;;;;;;;;;5071230;28;20224;-58
2023/05/21 07:23:46;;;;;;;8.17;6.70;;;;;;;;;;5071254;28;20202;-58
2023/05/21 07:26:12;;;;;;;7.13;6.43;;;;;;;;;;5071048;28;20694;-58
2023/05/21 07:28:38;;;;;;;7.43;6.70;;;;;;;;;;5071228;28;20228;-57
2023/05/21 07:31:04;;;;;;;7.50;6.80;;;;;;;;;;5071200;28;20194;-58
2023/05/21 07:33:30;;;;;;;9.03;7.93;;;;;;;;;;5071015;28;20198;-59
2023/05/21 07:35:56;;;;;;;7.27;6.33;;;;;;;;;;5070988;28;20238;-56
2023/05/21 07:38:22;;;;;;;7.77;6.97;;;;;;;;;;5071019;28;20201;-58
2023/05/21 07:40:50;;;;;;;8.13;7.43;;;;;;;;;;5071146;28;20534;-58
2023/05/21 07:43:16;;;;;;;10.23;8.30;;;;;;;;;;5070764;28;20222;-58
2023/05/21 07:45:42;;;;;;;8.13;7.33;;;;;;;;;;5071043;28;20221;-58
2023/05/21 07:48:08;;;;;;;7.90;7.00;;;;;;;;;;5070880;28;20234;-58
2023/05/21 07:50:34;;;;;;;7.23;5.63;;;;;;;;;;5070929;28;20206;-57
2023/05/21 07:53:00;;;;;;;8.93;7.80;;;;;;;;;;5072177;28;20263;-58
2023/05/21 07:55:26;;;;;;;9.23;8.23;;;;;;;;;;5074232;28;20695;-57
2023/05/21 07:57:53;;;;;;;8.53;7.73;;;;;;;;;;5072464;28;20194;-57
2023/05/21 08:00:19;;;;;;;9.50;7.80;;;;;;;;;;5074327;28;20239;-57
2023/05/21 08:02:45;;;;;;;8.60;7.80;;;;;;;;;;5074148;28;20231;-57
2023/05/21 08:05:11;;;;;;;9.30;8.33;;;;;;;;;;5073917;28;20221;-57
2023/05/21 08:07:38;;;;;;;10.20;8.43;;;;;;;;;;5074234;28;20196;-57
2023/05/21 08:10:04;;;;;;;10.00;9.00;;;;;;;;;;5074110;28;20202;-57
2023/05/21 08:12:30;;;;;;;9.87;7.53;;;;;;;;;;5074045;28;20234;-57
2023/05/21 08:14:58;;;;;;;9.20;8.20;;;;;;;;;;5073947;28;20226;-58
2023/05/21 08:17:24;;;;;;;10.50;9.20;;;;;;;;;;5073934;28;20276;-57
2023/05/21 08:19:50;;;;;;;10.80;8.70;;;;;;;;;;5074075;28;20196;-57
2023/05/21 08:22:17;;;;;;;9.30;8.40;;;;;;;;;;5073740;28;20585;-57
2023/05/21 08:24:43;;;;;;;10.20;8.63;;;;;;;;;;5073872;28;20195;-57
2023/05/21 08:27:09;;;;;;;12.73;9.20;;;;;;;;;;5073764;28;20199;-57
2023/05/21 08:29:35;;;;;;;9.83;8.70;;;;;;;;;;5073870;28;20221;-58
2023/05/21 08:32:02;;;;;;;8.47;7.63;;;;;;;;;;5073725;28;20195;-57
2023/05/21 08:34:28;;;;;;;9.23;8.40;;;;;;;;;;5073485;28;20207;-58
2023/05/21 08:36:54;;;;;;;10.93;9.83;;;;;;;;;;5073503;28;20272;-58
2023/05/21 08:39:20;;;;;;;9.87;8.70;;;;;;;;;;5072653;28;20269;-57
2023/05/21 08:41:50;;;;;;;15.10;13.60;;;;;;;;;;5073497;28;20227;-58
2023/05/21 08:44:20;;;;;;;10.97;9.87;;;;;;;;;;5073326;28;20199;-57
2023/05/21 08:46:48;;;;;;;10.23;9.23;;;;;;;;;;5073566;28;20222;-57
2023/05/21 08:49:16;;;;;;;10.20;9.20;;;;;;;;;;5073377;28;20211;-57
2023/05/21 08:51:43;;;;;;;10.10;8.97;;;;;;;;;;5073388;28;20214;-57
2023/05/21 08:54:10;;;;;;;9.43;8.53;;;;;;;;;;5073250;28;20245;-57
2023/05/21 08:56:36;;;;;;;9.33;8.50;;;;;;;;;;5073493;28;20295;-58
2023/05/21 08:59:02;;;;;;;8.87;7.97;;;;;;;;;;5073179;28;20195;-60
2023/05/21 09:01:28;;;;;;;9.50;8.70;;;;;;;;;;5072949;28;20274;-57
2023/05/21 09:03:56;;;;;;;11.83;10.77;;;;;;;;;;5072790;28;20223;-58
2023/05/21 09:06:26;;;;;;;11.70;10.37;;;;;;;;;;5072986;28;20715;-58
2023/05/21 09:08:56;;;;;;;10.33;9.33;;;;;;;;;;5073092;28;20659;-57
2023/05/21 09:11:22;;;;;;;9.37;8.47;;;;;;;;;;5073035;28;20613;-58
2023/05/21 09:13:49;;;;;;;10.10;9.17;;;;;;;;;;5073028;28;20200;-57
2023/05/21 09:16:15;;;;;;;10.07;9.07;;;;;;;;;;5072786;28;20775;-57
2023/05/21 09:18:41;;;;;;;11.07;9.63;;;;;;;;;;5073058;28;20302;-58
2023/05/21 09:24:04;;;;;;;10.17;9.13;;;;;;;;;;5087423;27;21162;-57
2023/05/21 09:26:30;;;;;;;10.43;9.33;;;;;;;;;;5088861;28;20203;-58
2023/05/21 09:28:57;;;;;;;11.43;9.27;;;;;;;;;;5089076;28;20207;-57
2023/05/21 09:31:23;;;;;;;11.23;10.20;;;;;;;;;;5088952;28;20256;-58
2023/05/21 09:33:49;;;;;;;11.97;10.40;;;;;;;;;;5088746;28;20657;-57
2023/05/21 09:36:18;;;;;;;9.97;8.97;;;;;;;;;;5088791;28;20195;-57
2023/05/21 09:38:45;;;;;;;11.43;9.20;;;;;;;;;;5088871;28;20278;-57
2023/05/21 09:41:12;;;;;;;11.37;10.27;;;;;;;;;;5088236;28;20206;-56
2023/05/21 09:43:41;;;;;;;10.33;9.33;;;;;;;;;;5088511;28;20231;-58
2023/05/21 09:46:07;;;;;;;10.37;9.03;;;;;;;;;;5088786;28;20200;-57
2023/05/21 09:48:35;;;;;;;11.20;10.10;;;;;;;;;;5088540;28;20191;-57
2023/05/21 09:51:07;;;;;;;9.93;8.73;;;;;;;;;;5088561;28;20196;-57
2023/05/21 09:53:33;;;;;;;10.47;9.57;;;;;;;;;;5088443;28;20222;-57
2023/05/21 09:55:59;;;;;;;10.57;9.57;;;;;;;;;;5088532;28;20223;-57
2023/05/21 09:58:27;;;;;;;9.80;8.73;;;;;;;;;;5088257;28;20278;-58
2023/05/21 10:00:53;;;;;;;10.30;9.27;;;;;;;;;;5088566;28;20204;-58
2023/05/21 10:03:21;;;;;;;10.67;9.63;;;;;;;;;;5088345;28;20738;-57
2023/05/21 10:05:47;;;;;;;20.17;18.33;;;;;;;;;;5088484;28;20205;-58
2023/05/21 10:08:15;;;;;;;10.80;9.37;;;;;;;;;;5088274;28;20642;-58
2023/05/21 10:10:42;;;;;;;9.27;8.47;;;;;;;;;;5088145;28;20628;-59
2023/05/21 10:13:10;;;;;;;9.57;8.67;;;;;;;;;;5088465;28;20193;-58
2023/05/21 10:15:38;;;;;;;11.33;10.07;;;;;;;;;;5088380;28;20574;-58
2023/05/21 10:18:04;;;;;;;9.40;8.50;;;;;;;;;;5088372;28;20288;-58
2023/05/21 10:20:31;;;;;;;9.67;8.73;;;;;;;;;;5088187;28;20201;-58
2023/05/21 10:22:58;;;;;;;15.70;10.37;;;;;;;;;;5087990;28;20239;-58
2023/05/21 10:25:25;;;;;;;10.37;9.27;;;;;;;;;;5087943;28;20198;-58
2023/05/21 10:27:51;;;;;;;9.90;8.90;;;;;;;;;;5088173;28;20205;-58
2023/05/21 10:30:17;;;;;;;9.80;8.77;;;;;;;;;;5088016;28;20268;-58
2023/05/21 10:32:47;;;;;;;9.80;8.90;;;;;;;;;;5088017;28;20559;-58
2023/05/21 10:35:14;;;;;;;9.93;8.80;;;;;;;;;;5075304;28;20199;-58
2023/05/21 10:37:41;;;;;;;9.57;8.57;;;;;;;;;;5074326;28;20278;-58
2023/05/21 10:40:07;;;;;;;10.10;8.57;;;;;;;;;;5074167;28;20202;-58
2023/05/21 10:42:51;;;;;;;9.50;8.60;;;;;;;;;;5074068;28;20219;-58
2023/05/21 10:45:23;;;;;;;13.83;11.57;;;;;;;;;;5074287;28;20205;-58
2023/05/21 10:48:01;;;;;;;11.80;9.33;;;;;;;;;;5074207;28;20658;-56
2023/05/21 10:50:34;;;;;;;9.37;8.27;;;;;;;;;;5074070;28;20200;-58
2023/05/21 10:53:06;;;;;;;11.07;8.93;;;;;;;;;;5074267;28;20191;-59
2023/05/21 10:55:38;;;;;;;9.90;8.93;;;;;;;;;;5074018;28;20206;-58
2023/05/21 10:58:23;;;;;;;9.73;8.73;;;;;;;;;;5074060;28;20200;-58
2023/05/21 11:00:49;;;;;;;9.73;8.80;;;;;;;;;;5073956;28;20208;-58
2023/05/21 11:03:16;;;;;;;10.37;9.37;;;;;;;;;;5074322;28;20230;-58
2023/05/21 11:05:50;;;;;;;9.90;9.00;;;;;;;;;;5073981;28;20281;-57
2023/05/21 11:08:24;;;;;;;10.97;8.87;;;;;;;;;;5073913;28;20198;-57
2023/05/21 11:10:53;;;;;;;9.50;8.60;;;;;;;;;;5073981;28;20248;-58
2023/05/21 11:13:20;;;;;;;9.93;9.03;;;;;;;;;;5073637;28;20625;-58
2023/05/21 11:16:07;;;;;;;9.40;8.50;;;;;;;;;;5073859;28;20208;-58
2023/05/21 11:18:53;;;;;;;10.17;9.27;;;;;;;;;;5073714;28;20254;-58
2023/05/21 11:21:24;;;;;;;10.03;9.03;;;;;;;;;;5073795;28;20201;-58
2023/05/21 11:23:51;;;;;;;10.17;9.17;;;;;;;;;;5073602;28;20291;-58
2023/05/21 11:26:17;;;;;;;9.20;8.33;;;;;;;;;;5073515;28;20282;-58
2023/05/21 11:28:43;;;;;;;9.70;8.80;;;;;;;;;;5073276;28;20209;-58
2023/05/21 11:31:46;;;;;;;8.67;7.90;;;;;;;;;;5073377;28;20205;-58
2023/05/21 11:34:15;;;;;;;8.87;8.07;;;;;;;;;;5040385;28;20230;-57
2023/05/21 11:36:44;;;;;;;9.77;8.87;;;;;;;;;;5073080;28;20685;-57
2023/05/21 11:39:11;;;;;;;8.73;7.97;;;;;;;;;;5073265;28;20286;-57
2023/05/21 11:41:50;;;;;;;8.77;7.97;;;;;;;;;;5073067;28;20230;-57
2023/05/21 11:44:16;;;;;;;9.13;8.20;;;;;;;;;;5073010;28;20211;-57
2023/05/21 11:46:42;;;;;;;9.00;8.10;;;;;;;;;;5071764;28;20199;-57
2023/05/21 11:49:08;;;;;;;8.90;7.97;;;;;;;;;;5072900;28;20203;-57
2023/05/21 11:51:35;;;;;;;9.87;8.27;;;;;;;;;;5072643;28;20195;-57
2023/05/21 11:54:02;;;;;;;8.83;7.93;;;;;;;;;;5072939;28;20252;-57
2023/05/21 11:56:30;;;;;;;9.57;8.67;;;;;;;;;;5070898;28;20214;-57
2023/05/21 11:58:56;;;;;;;9.87;8.00;;;;;;;;;;5071332;28;20668;-57
2023/05/21 12:01:22;;;;;;;8.30;7.50;;;;;;;;;;5073046;28;20199;-58
2023/05/21 12:03:48;;;;;;;8.37;7.57;;;;;;;;;;5072688;28;20241;-58
2023/05/21 12:06:16;;;;;;;8.27;7.47;;;;;;;;;;5072813;28;20283;-57
2023/05/21 12:08:44;;;;;;;9.33;7.60;;;;;;;;;;5072676;28;20293;-57
2023/05/21 12:11:11;;;;;;;8.77;8.07;;;;;;;;;;5072688;28;20252;-57
2023/05/21 12:13:37;;;;;;;9.37;8.03;;;;;;;;;;5072639;28;20195;-57
2023/05/21 12:16:04;;;;;;;8.67;7.97;;;;;;;;;;5072800;28;20213;-58
2023/05/21 12:18:30;;;;;;;9.63;8.73;;;;;;;;;;5072627;28;20646;-59
2023/05/21 12:20:56;;;;;;;9.23;8.37;;;;;;;;;;5072720;28;20218;-57
2023/05/21 12:23:23;;;;;;;9.07;7.93;;;;;;;;;;5072469;28;20235;-57
2023/05/21 12:25:49;;;;;;;14.43;8.37;;;;;;;;;;5072573;28;20296;-57
2023/05/21 12:28:17;;;;;;;8.10;7.40;;;;;;;;;;5072370;28;20200;-57
2023/05/21 12:30:43;;;;;;;9.33;8.20;;;;;;;;;;5072272;28;21000;-58
2023/05/21 12:33:10;;;;;;;8.27;7.47;;;;;;;;;;5072300;28;20195;-58
2023/05/21 12:35:37;;;;;;;9.37;7.63;;;;;;;;;;5072337;28;20567;-58
2023/05/21 12:38:03;;;;;;;9.13;8.27;;;;;;;;;;5072365;28;20200;-58
2023/05/21 12:40:38;;;;;;;8.20;7.33;;;;;;;;;;5072198;28;20200;-58
2023/05/21 12:43:05;;;;;;;8.40;7.60;;;;;;;;;;5072340;28;20251;-58
2023/05/21 12:45:32;;;;;;;8.00;7.37;;;;;;;;;;5072193;28;20223;-57
2023/05/21 12:48:00;;;;;;;8.93;7.93;;;;;;;;;;5072071;28;20210;-58
2023/05/21 12:50:26;;;;;;;8.57;7.70;;;;;;;;;;5071974;28;20656;-57
2023/05/21 12:52:55;;;;;;;8.50;7.70;;;;;;;;;;5072073;28;20199;-57
2023/05/21 12:55:23;;;;;;;7.63;6.93;;;;;;;;;;5072224;28;20196;-57
2023/05/21 12:57:50;;;;;;;7.67;6.97;;;;;;;;;;5071775;28;20208;-57
2023/05/21 13:00:22;;;;;;;8.73;6.97;;;;;;;;;;5072056;28;20254;-58
2023/05/21 13:02:51;;;;;;;9.43;7.07;;;;;;;;;;5071956;28;20213;-57
2023/05/21 13:05:17;;;;;;;7.87;7.17;;;;;;;;;;5071961;28;20290;-57
2023/05/21 13:07:45;;;;;;;7.10;6.50;;;;;;;;;;5071828;28;20201;-57
2023/05/21 13:10:11;;;;;;;8.47;7.60;;;;;;;;;;5071892;28;20655;-58
2023/05/21 13:12:37;;;;;;;8.53;7.63;;;;;;;;;;5071798;28;20688;-58
2023/05/21 13:15:06;;;;;;;7.10;6.50;;;;;;;;;;5071922;28;20203;-58
2023/05/21 13:17:32;;;;;;;7.70;6.87;;;;;;;;;;5071737;28;20210;-58
2023/05/21 13:20:07;;;;;;;12.20;7.77;;;;;;;;;;5071957;28;20318;-58
2023/05/21 13:22:34;;;;;;;8.27;7.47;;;;;;;;;;5071545;28;20234;-58
2023/05/21 13:25:00;;;;;;;8.07;7.33;;;;;;;;;;5071715;28;20191;-58
2023/05/21 13:27:26;;;;;;;7.70;7.00;;;;;;;;;;5071647;28;20198;-57
2023/05/21 13:29:52;;;;;;;7.13;6.53;;;;;;;;;;5071480;28;20222;-59
2023/05/21 13:32:18;;;;;;;7.33;6.73;;;;;;;;;;5071714;28;20608;-59
2023/05/21 13:34:45;;;;;;;8.23;7.07;;;;;;;;;;5071585;28;20253;-59
2023/05/21 13:37:12;;;;;;;7.63;6.83;;;;;;;;;;5069841;28;20196;-59
2023/05/21 13:39:38;;;;;;;7.53;6.87;;;;;;;;;;5071360;28;20578;-59
2023/05/21 13:42:04;;;;;;;7.80;7.10;;;;;;;;;;5071293;28;20196;-59
2023/05/21 13:44:34;;;;;;;7.03;6.33;;;;;;;;;;5071140;28;20203;-59
2023/05/21 13:47:00;;;;;;;7.23;6.53;;;;;;;;;;5070982;28;20200;-59
2023/05/21 13:49:26;;;;;;;7.20;6.50;;;;;;;;;;5070960;28;20288;-59
2023/05/21 13:51:52;;;;;;;9.33;6.70;;;;;;;;;;5071244;28;20192;-58
2023/05/21 13:54:20;;;;;;;7.60;6.87;;;;;;;;;;5071001;28;20566;-58
2023/05/21 13:56:46;;;;;;;6.97;6.37;;;;;;;;;;5071075;28;20567;-58
2023/05/21 13:59:12;;;;;;;7.67;6.70;;;;;;;;;;5070928;28;20657;-59
2023/05/21 14:01:38;;;;;;;7.20;6.53;;;;;;;;;;5070879;28;20610;-58
2023/05/21 14:04:05;;;;;;;7.67;6.97;;;;;;;;;;5070957;28;20729;-58
2023/05/21 14:06:32;;;;;;;7.97;7.00;;;;;;;;;;5070874;28;20199;-58
2023/05/21 14:08:58;;;;;;;7.77;7.13;;;;;;;;;;5071510;28;20200;-58
2023/05/21 14:11:26;;;;;;;7.43;6.67;;;;;;;;;;5074534;28;20206;-58
2023/05/21 14:13:52;;;;;;;7.47;6.77;;;;;;;;;;5075107;28;20218;-59
2023/05/21 14:16:18;;;;;;;7.33;6.70;;;;;;;;;;5074675;28;20224;-58
2023/05/21 14:18:44;;;;;;;8.43;7.40;;;;;;;;;;5074419;28;20632;-58
2023/05/21 14:21:10;;;;;;;9.13;8.23;;;;;;;;;;5074455;28;20196;-58
2023/05/21 14:23:36;;;;;;;7.60;6.90;;;;;;;;;;5074169;28;20244;-59
2023/05/21 14:26:02;;;;;;;7.60;6.73;;;;;;;;;;5074232;28;20191;-58
2023/05/21 14:28:29;;;;;;;7.90;7.10;;;;;;;;;;5074223;28;20196;-58
2023/05/21 14:30:55;;;;;;;8.20;7.17;;;;;;;;;;5074509;28;20211;-58
2023/05/21 14:33:21;;;;;;;7.53;6.87;;;;;;;;;;5074809;28;20604;-59
2023/05/21 14:35:47;;;;;;;8.53;7.60;;;;;;;;;;5074585;28;20234;-59
2023/05/21 14:38:13;;;;;;;8.67;7.87;;;;;;;;;;5074583;28;20208;-60
2023/05/21 14:40:40;;;;;;;8.40;7.60;;;;;;;;;;5074508;28;20286;-59
2023/05/21 14:43:06;;;;;;;10.07;7.30;;;;;;;;;;5074581;28;20235;-60